createdAt,value
2023-02-05T00:01:21.885Z,9.82
2023-02-05T00:03:49.516Z,9.02
2023-02-05T00:06:15.950Z,12.57
2023-02-05T00:08:42.917Z,7.35
2023-02-05T00:11:09.711Z,10.88
2023-02-05T00:13:37.058Z,7.57
2023-02-05T00:16:23.945Z,8.65
2023-02-05T00:18:51.033Z,8.27
2023-02-05T00:21:18.744Z,9.80
2023-02-05T00:23:45.225Z,8.05
2023-02-05T00:26:14.067Z,11.05
2023-02-05T00:28:41.804Z,10.43
2023-02-05T00:31:14.152Z,12.63
2023-02-05T00:33:40.828Z,10.88
2023-02-05T00:36:08.216Z,8.32
2023-02-05T00:38:36.180Z,10.00
2023-02-05T00:41:03.154Z,10.45
2023-02-05T00:43:30.090Z,7.35
2023-02-05T00:45:56.590Z,9.68
2023-02-05T00:48:23.517Z,9.80
2023-02-05T00:50:51.332Z,14.18
2023-02-05T00:53:19.015Z,9.60
2023-02-05T00:55:45.449Z,7.47
2023-02-05T00:58:12.188Z,7.63
2023-02-05T01:00:39.242Z,8.07
2023-02-05T01:03:05.939Z,11.93
2023-02-05T01:05:34.780Z,8.88
2023-02-05T01:08:01.841Z,8.85
2023-02-05T01:10:28.246Z,10.70
2023-02-05T01:12:54.705Z,6.50
2023-02-05T01:15:21.458Z,10.82
2023-02-05T01:17:48.112Z,8.65
2023-02-05T01:20:15.497Z,8.00
2023-02-05T01:22:42.680Z,7.60
2023-02-05T01:25:09.887Z,10.15
2023-02-05T01:27:37.187Z,6.20
2023-02-05T01:30:05.631Z,9.25
2023-02-05T01:32:32.237Z,8.25
2023-02-05T01:34:58.755Z,7.22
2023-02-05T01:37:25.282Z,9.52
2023-02-05T01:39:51.704Z,9.30
2023-02-05T01:42:21.492Z,12.18
2023-02-05T01:45:22.190Z,9.73
2023-02-05T01:47:50.264Z,10.35
2023-02-05T01:50:22.516Z,9.05
2023-02-05T01:52:49.851Z,10.77
2023-02-05T01:55:16.741Z,6.63
2023-02-05T01:57:43.358Z,6.13
2023-02-05T02:00:10.670Z,6.90
2023-02-05T02:02:43.136Z,7.43
2023-02-05T02:05:15.244Z,7.72
2023-02-05T02:07:42.019Z,8.93
2023-02-05T02:10:10.880Z,8.57
2023-02-05T02:12:41.265Z,8.27
2023-02-05T02:15:19.021Z,7.63
2023-02-05T02:17:49.877Z,11.85
2023-02-05T02:20:20.509Z,7.97
2023-02-05T02:22:52.656Z,9.82
2023-02-05T02:25:48.677Z,10.00
2023-02-05T02:28:26.935Z,9.18
2023-02-05T02:31:04.537Z,9.68
2023-02-05T02:33:46.436Z,12.10
2023-02-05T02:36:26.911Z,10.20
2023-02-05T02:39:00.713Z,7.85
2023-02-05T02:43:53.600Z,7.88
2023-02-05T02:46:44.040Z,7.97
2023-02-05T02:49:24.375Z,7.47
2023-02-05T02:51:52.180Z,8.35
2023-02-05T02:54:21.647Z,8.13
2023-02-05T02:56:52.257Z,8.50
2023-02-05T02:59:23.435Z,10.82
2023-02-05T03:01:55.268Z,11.38
2023-02-05T03:04:27.882Z,8.43
2023-02-05T03:06:58.322Z,11.63
2023-02-05T03:09:49.888Z,7.75
2023-02-05T03:12:18.965Z,10.48
2023-02-05T03:14:45.986Z,9.15
2023-02-05T03:17:18.512Z,8.00
2023-02-05T03:19:57.805Z,9.18
2023-02-05T03:22:25.353Z,6.90
2023-02-05T03:24:52.264Z,9.77
2023-02-05T03:27:21.984Z,6.60
2023-02-05T03:29:49.446Z,9.00
2023-02-05T03:32:43.403Z,8.35
2023-02-05T03:35:26.387Z,7.63
2023-02-05T03:38:15.300Z,7.85
2023-02-05T03:41:07.428Z,8.88
2023-02-05T03:43:58.816Z,8.52
2023-02-05T03:46:45.081Z,6.82
2023-02-05T03:49:30.984Z,9.68
2023-02-05T03:52:12.260Z,12.02
2023-02-05T03:55:05.165Z,7.03
2023-02-05T03:57:42.310Z,7.55
2023-02-05T04:00:10.856Z,7.50
2023-02-05T04:02:46.294Z,7.85
2023-02-05T04:05:20.960Z,6.30
2023-02-05T04:07:49.335Z,6.57
2023-02-05T04:10:17.028Z,8.02
2023-02-05T04:12:43.569Z,8.05
2023-02-05T04:15:10.829Z,6.95
2023-02-05T04:17:39.964Z,11.40
2023-02-05T04:20:07.749Z,7.75
2023-02-05T04:22:34.508Z,5.97
2023-02-05T04:25:01.012Z,7.72
2023-02-05T04:27:27.431Z,8.23
2023-02-05T04:29:55.299Z,7.57
2023-02-05T04:32:21.806Z,11.05
2023-02-05T04:34:48.221Z,9.57
2023-02-05T04:37:15.027Z,8.32
2023-02-05T04:39:41.480Z,8.73
2023-02-05T04:42:07.887Z,7.15
2023-02-05T04:44:34.268Z,8.02
2023-02-05T04:47:00.668Z,7.28
2023-02-05T04:49:27.168Z,10.00
2023-02-05T04:51:53.659Z,7.80
2023-02-05T04:54:20.301Z,8.75
2023-02-05T04:56:46.812Z,7.18
2023-02-05T04:59:13.264Z,10.73
2023-02-05T05:01:40.596Z,7.25
2023-02-05T05:04:06.990Z,9.27
2023-02-05T05:06:33.866Z,8.75
2023-02-05T05:09:00.214Z,7.18
2023-02-05T05:11:26.595Z,6.38
2023-02-05T05:13:53.060Z,8.20
2023-02-05T05:16:20.196Z,10.02
2023-02-05T05:18:46.822Z,7.38
2023-02-05T05:21:13.353Z,9.70
2023-02-05T05:23:39.765Z,6.85
2023-02-05T05:26:08.048Z,7.25
2023-02-05T05:28:35.684Z,8.93
2023-02-05T05:31:22.029Z,7.35
2023-02-05T05:33:49.048Z,8.50
2023-02-05T05:36:15.947Z,9.30
2023-02-05T05:38:43.017Z,9.57
2023-02-05T05:41:37.867Z,8.75
2023-02-05T05:44:04.480Z,9.52
2023-02-05T05:46:30.870Z,8.57
2023-02-05T05:48:59.164Z,10.13
2023-02-05T05:51:27.268Z,10.13
2023-02-05T05:53:54.742Z,10.75
2023-02-05T05:56:21.578Z,7.57
2023-02-05T05:58:48.797Z,10.15
2023-02-05T06:01:17.609Z,7.85
2023-02-05T06:03:44.011Z,9.23
2023-02-05T06:06:12.239Z,11.85
2023-02-05T06:08:39.204Z,8.98
2023-02-05T06:11:05.645Z,9.00
2023-02-05T06:13:32.114Z,10.48
2023-02-05T06:15:58.599Z,7.53
2023-02-05T06:18:25.051Z,7.22
2023-02-05T06:20:51.482Z,10.13
2023-02-05T06:23:17.953Z,9.15
2023-02-05T06:25:44.450Z,10.00
2023-02-05T06:28:11.085Z,11.65
2023-02-05T06:30:37.592Z,8.75
2023-02-05T06:33:05.180Z,8.38
2023-02-05T06:35:31.806Z,7.82
2023-02-05T06:37:58.554Z,8.70
2023-02-05T06:40:25.855Z,8.13
2023-02-05T06:42:53.293Z,10.77
2023-02-05T06:45:19.725Z,8.48
2023-02-05T06:47:46.609Z,8.00
2023-02-05T06:50:13.560Z,11.30
2023-02-05T06:52:40.066Z,9.68
2023-02-05T06:55:07.244Z,9.98
2023-02-05T06:57:33.794Z,8.10
2023-02-05T07:00:00.221Z,8.00
2023-02-05T07:02:26.898Z,7.35
2023-02-05T07:04:53.283Z,8.95
2023-02-05T07:07:19.655Z,8.82
2023-02-05T07:09:46.248Z,11.02
2023-02-05T07:12:12.669Z,11.00
2023-02-05T07:14:40.498Z,13.82
2023-02-05T07:17:08.060Z,10.45
2023-02-05T07:19:35.174Z,10.32
2023-02-05T07:22:01.660Z,12.75
2023-02-05T07:24:28.000Z,12.65
2023-02-05T07:26:54.428Z,11.80
2023-02-05T07:29:20.984Z,8.98
2023-02-05T07:31:49.604Z,7.97
2023-02-05T07:34:15.983Z,12.07
2023-02-05T07:36:42.428Z,9.85
2023-02-05T07:39:08.817Z,8.02
2023-02-05T07:41:35.362Z,8.63
2023-02-05T07:44:01.744Z,10.90
2023-02-05T07:46:28.172Z,11.00
2023-02-05T07:48:55.013Z,10.95
2023-02-05T07:51:24.055Z,9.57
2023-02-05T07:53:50.851Z,12.10
2023-02-05T07:56:18.190Z,11.65
2023-02-05T07:58:44.570Z,12.00
2023-02-05T08:01:11.062Z,11.25
2023-02-05T08:03:37.422Z,11.85
2023-02-05T08:06:08.570Z,15.88
2023-02-05T08:08:35.069Z,13.40
2023-02-05T08:11:04.349Z,18.58
2023-02-05T08:13:31.273Z,10.73
2023-02-05T08:15:57.954Z,13.38
2023-02-05T08:18:25.204Z,11.30
2023-02-05T08:20:53.315Z,15.93
2023-02-05T08:23:20.332Z,11.77
2023-02-05T08:25:47.070Z,11.00
2023-02-05T08:28:14.113Z,14.15
2023-02-05T08:30:40.867Z,12.95
2023-02-05T08:33:07.380Z,10.45
2023-02-05T08:35:34.007Z,12.98
2023-02-05T08:38:00.603Z,12.05
2023-02-05T08:40:27.300Z,7.93
2023-02-05T08:42:57.041Z,16.67
2023-02-05T08:45:24.399Z,12.18
2023-02-05T08:47:50.941Z,15.00
2023-02-05T08:50:18.580Z,12.77
2023-02-05T08:52:45.273Z,12.50
2023-02-05T08:55:12.242Z,13.25
2023-02-05T08:57:38.780Z,15.70
2023-02-05T09:00:07.099Z,14.35
2023-02-05T09:02:33.572Z,11.02
2023-02-05T09:05:08.568Z,12.07
2023-02-05T09:07:39.524Z,11.70
2023-02-05T09:10:11.751Z,13.20
2023-02-05T09:12:38.450Z,9.73
2023-02-05T09:15:06.481Z,10.55
2023-02-05T09:17:32.910Z,9.85
2023-02-05T09:19:59.338Z,11.52
2023-02-05T09:22:25.924Z,9.93
2023-02-05T09:24:52.336Z,11.35
2023-02-05T09:27:18.742Z,13.55
2023-02-05T09:29:45.110Z,14.00
2023-02-05T09:32:11.540Z,14.40
2023-02-05T09:34:37.886Z,9.27
2023-02-05T09:37:04.347Z,12.85
2023-02-05T09:40:12.307Z,12.35
2023-02-05T09:42:33.748Z,15.35
2023-02-05T09:45:43.774Z,10.10
2023-02-05T09:48:28.653Z,10.63
2023-02-05T09:50:58.118Z,15.70
2023-02-05T09:53:32.968Z,13.27
2023-02-05T09:56:00.378Z,17.70
2023-02-05T09:58:37.807Z,13.57
2023-02-05T10:01:11.234Z,13.40
2023-02-05T10:03:48.072Z,12.52
2023-02-05T10:06:41.951Z,12.60
2023-02-05T10:09:14.276Z,13.05
2023-02-05T10:12:22.617Z,9.10
2023-02-05T10:15:09.531Z,13.75
2023-02-05T10:18:07.764Z,13.70
2023-02-05T10:20:50.256Z,14.40
2023-02-05T10:23:27.262Z,16.23
2023-02-05T10:25:59.885Z,12.60
2023-02-05T10:28:58.838Z,18.00
2023-02-05T10:31:43.546Z,14.05
2023-02-05T10:34:34.567Z,12.63
2023-02-05T10:37:03.129Z,13.65
2023-02-05T10:39:30.881Z,14.10
2023-02-05T10:42:04.938Z,12.18
2023-02-05T10:44:33.787Z,17.23
2023-02-05T10:47:10.298Z,15.25
2023-02-05T10:49:50.301Z,15.05
2023-02-05T10:52:17.150Z,15.90
2023-02-05T10:54:45.160Z,18.73
2023-02-05T10:57:14.884Z,13.57
2023-02-05T11:00:04.445Z,17.83
2023-02-05T11:02:38.989Z,17.15
2023-02-05T11:05:21.171Z,16.42
2023-02-05T11:07:50.117Z,17.20
2023-02-05T11:10:21.195Z,14.52
2023-02-05T11:12:51.668Z,16.15
2023-02-05T11:15:22.903Z,13.95
2023-02-05T11:17:56.268Z,16.42
2023-02-05T11:20:25.581Z,15.30
2023-02-05T11:23:16.353Z,17.55
2023-02-05T11:25:55.038Z,11.00
2023-02-05T11:28:30.260Z,14.20
2023-02-05T11:30:57.885Z,18.15
2023-02-05T11:33:29.660Z,18.50
2023-02-05T11:36:05.370Z,16.15
2023-02-05T11:38:46.661Z,16.33
2023-02-05T11:41:25.928Z,16.02
2023-02-05T11:43:53.738Z,17.13
2023-02-05T11:46:22.651Z,12.30
2023-02-05T11:49:04.785Z,23.15
2023-02-05T11:51:40.467Z,18.13
2023-02-05T11:54:29.665Z,15.48
2023-02-05T11:57:30.601Z,18.92
2023-02-05T12:00:09.057Z,15.13
2023-02-05T12:02:37.542Z,16.67
2023-02-05T12:05:12.719Z,14.90
2023-02-05T12:07:50.312Z,14.73
2023-02-05T12:10:25.929Z,17.05
2023-02-05T12:13:18.367Z,15.60
2023-02-05T12:15:57.732Z,16.88
2023-02-05T12:18:30.562Z,18.23
2023-02-05T12:21:25.366Z,15.80
2023-02-05T12:24:06.469Z,17.42
2023-02-05T12:26:42.419Z,17.05
2023-02-05T12:29:34.974Z,17.38
2023-02-05T12:32:14.471Z,16.73
2023-02-05T12:35:13.538Z,16.00
2023-02-05T12:37:56.530Z,17.92
2023-02-05T12:40:44.159Z,20.42
2023-02-05T12:43:45.176Z,15.77
2023-02-05T12:46:53.857Z,16.63
2023-02-05T12:49:45.061Z,17.10
2023-02-05T12:52:11.560Z,20.65
2023-02-05T12:54:46.598Z,17.23
2023-02-05T12:57:20.629Z,18.65
2023-02-05T12:59:53.763Z,18.00
2023-02-05T13:02:42.946Z,19.27
2023-02-05T13:05:32.108Z,15.40
2023-02-05T13:08:15.762Z,18.40
2023-02-05T13:11:04.167Z,17.45
2023-02-05T13:13:40.066Z,19.45
2023-02-05T13:16:11.265Z,18.70
2023-02-05T13:19:00.467Z,20.50
2023-02-05T13:21:53.871Z,22.52
2023-02-05T13:24:49.780Z,22.42
2023-02-05T13:27:45.271Z,16.85
2023-02-05T13:30:20.229Z,15.85
2023-02-05T13:32:51.782Z,18.27
2023-02-05T13:35:21.910Z,16.58
2023-02-05T13:38:01.249Z,16.98
2023-02-05T13:41:05.376Z,15.88
2023-02-05T13:44:00.795Z,14.85
2023-02-05T13:46:44.129Z,15.00
2023-02-05T13:52:12.102Z,15.90
2023-02-05T13:54:38.588Z,15.88
2023-02-05T13:57:15.386Z,16.02
2023-02-05T13:59:51.345Z,15.70
2023-02-05T14:02:33.224Z,17.85
2023-02-05T14:05:02.404Z,17.95
2023-02-05T14:07:32.994Z,17.92
2023-02-05T14:10:02.445Z,20.50
2023-02-05T14:12:36.049Z,18.52
2023-02-05T14:15:17.604Z,18.60
2023-02-05T14:17:44.083Z,17.15
2023-02-05T14:20:25.719Z,16.95
2023-02-05T14:22:54.447Z,20.42
2023-02-05T14:25:36.880Z,19.02
2023-02-05T14:28:15.738Z,19.02
2023-02-05T14:30:53.749Z,18.45
2023-02-05T14:33:41.013Z,16.70
2023-02-05T14:36:25.436Z,16.63
2023-02-05T14:38:55.049Z,16.77
2023-02-05T14:41:27.486Z,14.55
2023-02-05T14:43:56.018Z,17.95
2023-02-05T14:46:31.272Z,14.65
2023-02-05T14:49:00.396Z,14.35
2023-02-05T14:51:34.956Z,14.23
2023-02-05T14:54:13.988Z,16.88
2023-02-05T14:56:46.642Z,14.77
2023-02-05T14:59:20.317Z,18.83
2023-02-05T15:01:50.155Z,16.27
2023-02-05T15:04:45.086Z,15.52
2023-02-05T15:07:37.968Z,14.93
2023-02-05T15:10:12.453Z,17.52
2023-02-05T15:13:04.368Z,19.13
2023-02-05T15:15:33.715Z,16.92
2023-02-05T15:18:33.519Z,17.90
2023-02-05T15:21:01.732Z,19.50
2023-02-05T15:23:50.553Z,14.48
2023-02-05T15:26:30.591Z,14.05
2023-02-05T15:29:13.928Z,16.02
2023-02-05T15:34:28.675Z,16.98
2023-02-05T15:37:06.692Z,15.85
2023-02-05T15:39:57.965Z,15.82
2023-02-05T15:42:42.680Z,16.65
2023-02-05T15:45:24.684Z,17.23
2023-02-05T15:48:12.564Z,17.25
2023-02-05T15:50:47.442Z,15.98
2023-02-05T15:53:36.357Z,16.25
2023-02-05T15:56:16.341Z,23.65
2023-02-05T15:58:49.318Z,20.25
2023-02-05T16:03:52.883Z,18.67
2023-02-05T16:06:21.133Z,21.52
2023-02-05T16:08:49.268Z,19.98
2023-02-05T16:11:30.734Z,21.55
2023-02-05T16:14:13.496Z,19.58
2023-02-05T16:16:49.361Z,18.30
2023-02-05T16:19:21.762Z,23.08
2023-02-05T16:21:55.407Z,20.95
2023-02-05T16:24:40.878Z,17.63
2023-02-05T16:27:36.656Z,19.88
2023-02-05T16:30:12.047Z,17.35
2023-02-05T16:32:44.558Z,21.13
2023-02-05T16:35:41.612Z,15.90
2023-02-05T16:38:16.015Z,17.83
2023-02-05T16:40:46.308Z,17.60
2023-02-05T16:43:40.018Z,18.58
2023-02-05T16:46:06.403Z,19.65
2023-02-05T16:48:36.604Z,16.05
2023-02-05T16:51:03.884Z,14.60
2023-02-05T16:53:32.939Z,15.95
2023-02-05T16:56:12.961Z,12.57
2023-02-05T16:58:48.627Z,17.38
2023-02-05T17:01:22.667Z,16.65
2023-02-05T17:03:50.473Z,13.93
2023-02-05T17:06:18.615Z,17.05
2023-02-05T17:08:55.033Z,17.23
2023-02-05T17:11:40.056Z,12.73
2023-02-05T17:14:21.275Z,14.88
2023-02-05T17:17:17.532Z,14.82
2023-02-05T17:19:44.271Z,13.27
2023-02-05T17:22:10.591Z,14.40
2023-02-05T17:24:36.969Z,15.43
2023-02-05T17:27:03.571Z,18.73
2023-02-05T17:29:32.125Z,15.85
2023-02-05T17:31:58.597Z,14.40
2023-02-05T17:34:25.030Z,20.15
2023-02-05T17:36:51.717Z,25.83
2023-02-05T17:39:18.399Z,16.17
2023-02-05T17:42:03.516Z,15.73
2023-02-05T17:44:31.167Z,13.13
2023-02-05T17:46:58.543Z,11.98
2023-02-05T17:49:25.020Z,14.30
2023-02-05T17:51:51.494Z,11.63
2023-02-05T17:54:23.138Z,12.27
2023-02-05T17:56:50.803Z,14.50
2023-02-05T17:59:19.605Z,13.30
2023-02-05T18:01:47.609Z,12.55
2023-02-05T18:04:14.144Z,11.60
2023-02-05T18:06:42.719Z,12.15
2023-02-05T18:09:09.780Z,12.88
2023-02-05T18:11:36.466Z,15.18
2023-02-05T18:14:02.849Z,13.88
2023-02-05T18:16:29.525Z,14.65
2023-02-05T18:18:56.331Z,12.65
2023-02-05T18:21:24.392Z,12.95
2023-02-05T18:23:52.660Z,13.18
2023-02-05T18:26:19.912Z,11.52
2023-02-05T18:28:46.724Z,12.65
2023-02-05T18:31:14.730Z,14.02
2023-02-05T18:33:42.159Z,12.60
2023-02-05T18:36:13.871Z,11.75
2023-02-05T18:38:42.875Z,11.13
2023-02-05T18:41:18.376Z,11.05
2023-02-05T18:43:45.176Z,11.52
2023-02-05T18:46:16.475Z,12.98
2023-02-05T18:48:45.559Z,11.23
2023-02-05T18:51:14.941Z,12.05
2023-02-05T18:53:43.097Z,12.68
2023-02-05T18:56:16.222Z,11.93
2023-02-05T19:01:14.406Z,10.63
2023-02-05T19:03:42.474Z,12.32
2023-02-05T19:06:10.451Z,10.35
2023-02-05T19:08:37.470Z,10.25
2023-02-05T19:11:16.839Z,12.88
2023-02-05T19:13:43.378Z,11.00
2023-02-05T19:16:13.035Z,10.98
2023-02-05T19:18:40.681Z,9.50
2023-02-05T19:21:10.581Z,10.07
2023-02-05T19:23:37.471Z,11.55
2023-02-05T19:26:05.836Z,10.25
2023-02-05T19:28:33.481Z,9.38
2023-02-05T19:31:10.663Z,10.98
2023-02-05T19:33:37.987Z,10.15
2023-02-05T19:36:06.610Z,9.23
2023-02-05T19:38:35.950Z,11.63
2023-02-05T19:41:10.621Z,11.48
2023-02-05T19:43:37.150Z,15.15
2023-02-05T19:46:05.494Z,11.60
2023-02-05T19:48:32.391Z,10.23
2023-02-05T19:51:06.736Z,12.23
2023-02-05T19:53:35.090Z,11.20
2023-02-05T19:56:07.516Z,9.63
2023-02-05T19:58:35.395Z,10.93
2023-02-05T20:01:10.487Z,12.82
2023-02-05T20:03:37.861Z,9.55
2023-02-05T20:06:05.647Z,15.73
2023-02-05T20:08:32.488Z,13.52
2023-02-05T20:11:01.214Z,12.93
2023-02-05T20:13:33.804Z,13.02
2023-02-05T20:16:10.812Z,16.90
2023-02-05T20:18:38.719Z,13.00
2023-02-05T20:21:06.858Z,13.02
2023-02-05T20:23:33.887Z,12.25
2023-02-05T20:26:04.192Z,11.88
2023-02-05T20:28:58.978Z,11.65
2023-02-05T20:31:33.612Z,10.88
2023-02-05T20:34:06.208Z,11.75
2023-02-05T20:36:34.007Z,13.73
2023-02-05T20:39:02.590Z,12.00
2023-02-05T20:41:29.399Z,12.65
2023-02-05T20:43:57.350Z,12.70
2023-02-05T20:46:25.554Z,11.65
2023-02-05T20:48:52.339Z,12.40
2023-02-05T20:51:20.685Z,11.43
2023-02-05T20:53:48.119Z,12.52
2023-02-05T20:56:17.534Z,13.25
2023-02-05T20:58:45.106Z,12.23
2023-02-05T21:01:20.338Z,13.15
2023-02-05T21:03:50.237Z,13.63
2023-02-05T21:06:18.725Z,11.90
2023-02-05T21:08:47.056Z,14.27
2023-02-05T21:11:15.142Z,12.95
2023-02-05T21:13:42.927Z,12.25
2023-02-05T21:16:10.279Z,12.20
2023-02-05T21:18:38.144Z,13.27
2023-02-05T21:21:06.804Z,14.13
2023-02-05T21:23:33.472Z,12.82
2023-02-05T21:25:59.877Z,11.85
2023-02-05T21:28:26.826Z,15.27
2023-02-05T21:31:09.894Z,14.68
2023-02-05T21:36:07.550Z,12.52
2023-02-05T21:38:38.552Z,14.23
2023-02-05T21:41:13.723Z,11.68
2023-02-05T21:43:40.860Z,11.88
2023-02-05T21:46:12.903Z,14.38
2023-02-05T21:48:39.889Z,14.23
2023-02-05T21:51:13.246Z,13.85
2023-02-05T21:53:40.878Z,13.60
2023-02-05T21:56:09.919Z,11.88
2023-02-05T21:58:38.936Z,12.35
2023-02-05T22:01:09.492Z,15.30
2023-02-05T22:03:36.032Z,15.93
2023-02-05T22:06:06.547Z,13.10
2023-02-05T22:08:38.435Z,12.10
2023-02-05T22:11:07.391Z,15.60
2023-02-05T22:13:39.386Z,14.43
2023-02-05T22:16:08.879Z,14.80
2023-02-05T22:18:36.782Z,14.45
2023-02-05T22:21:12.767Z,13.88
2023-02-05T22:23:41.125Z,15.07
2023-02-05T22:26:08.376Z,15.40
2023-02-05T22:28:35.817Z,14.23
2023-02-05T22:31:07.570Z,14.20
2023-02-05T22:33:35.943Z,13.38
2023-02-05T22:36:03.408Z,15.52
2023-02-05T22:38:34.974Z,15.63
2023-02-05T22:41:07.557Z,15.15
2023-02-05T22:43:34.298Z,13.88
2023-02-05T22:46:08.901Z,14.60
2023-02-05T22:48:36.642Z,13.38
2023-02-05T22:51:11.324Z,15.82
2023-02-05T22:53:38.542Z,13.90
2023-02-05T22:56:12.623Z,14.63
2023-02-05T22:58:41.439Z,14.68
2023-02-05T23:01:12.755Z,16.20
2023-02-05T23:03:39.745Z,13.10
2023-02-05T23:06:16.110Z,15.55
2023-02-05T23:08:43.924Z,13.30
2023-02-05T23:11:13.296Z,16.33
2023-02-05T23:13:40.914Z,16.00
2023-02-05T23:16:10.856Z,17.02
2023-02-05T23:18:39.029Z,15.98
2023-02-05T23:21:10.157Z,17.63
2023-02-05T23:23:37.212Z,16.10
2023-02-05T23:26:12.843Z,15.98
2023-02-05T23:28:40.387Z,16.30
2023-02-05T23:31:07.795Z,17.80
2023-02-05T23:33:35.249Z,20.83
2023-02-05T23:36:02.234Z,20.05
2023-02-05T23:38:28.904Z,19.05
2023-02-05T23:40:56.087Z,27.60
2023-02-05T23:43:23.066Z,26.80
2023-02-05T23:45:50.843Z,27.45
2023-02-05T23:48:17.833Z,23.15
2023-02-05T23:50:45.003Z,19.42
2023-02-05T23:53:11.562Z,16.05
2023-02-05T23:55:39.656Z,19.15
2023-02-05T23:58:07.362Z,19.02
